TPOK1: Kansas River, State-Line, KS

                                SHEF ID:       TPOK1     MARAIS DES CYGNES R NR KS-MO ST
STATION TYPE:

STAGE STAGE(2) RIV-FLOW BAT-LOAD
ft ft cfs volt
Ccp-Rev Ccp-Rev Ccp-Rev Ccp-Rev
(America/Chicago)
08/03 00:00 6.36 6.33 1149 12.47
08/03 01:00 6.35 6.29 1143 12.44
08/03 02:00 6.29 6.25 1109 12.44
08/03 03:00 6.23 6.20 1076 12.42
08/03 04:00 6.19 6.15 1054 12.37
08/03 05:00 6.15 6.14 1032 12.38
08/03 06:00 6.13 6.08 1021 12.35
08/03 07:00 6.10 6.04 1005 12.31
08/03 08:00 6.07 6.02 989 12.34
08/03 09:00 6.04 6.01 973 12.67
08/03 10:00 6.00 5.97 952 12.93
08/03 11:00 5.99 5.96 947 12.90
08/03 12:00 5.98 5.93 942 13.26
08/03 13:00 5.96 5.89 932 13.12
08/03 14:00 5.96 5.88 932 13.21
08/03 15:00 5.93 5.88 916 13.06
08/03 16:00 5.92 5.87 911 12.96
08/03 17:00 5.88 5.87 891 12.90
08/03 18:00 5.91 5.83 906 12.77
08/03 19:00 5.89 5.83 896 12.65
08/03 20:00 5.88 5.81 891 12.57
08/03 21:00 5.86 5.82 881 12.53
08/03 22:00 5.86 5.81 881 12.50
08/03 23:00 5.86 5.79 881 12.48
Data processed at Tue 04Aug2026 04:52 GMT

NOTICE: If you are parsing this page

Please convert to using our Data API. Starting early 2026 we will be migrating to: https://water.usace.army.mil with modern pages rendered in JavaScript. When this migration completes you will no longer be able to scrape this page! CWMSDataAPI (CDA)

Timeseries IDs (TSIDs)

TSIDs used from left to right in the data table
MKSL.Stage.Inst.1Hour.0.Ccp-Rev
MKSL.Stage-Alt.Inst.1Hour.0.Ccp-Rev
MKSL.Flow.Inst.1Hour.0.Ccp-Rev
MKSL.Volt-Battery Load.Inst.1Hour.0.Ccp-Rev

                            

All information presented herein is the property of the government of the United States of America and may be revised or deleted at any time without prior notice. Dissemination of this information without the expressed written consent of the Public Affairs Office, Tulsa District U.S. Army Corps of Engineers is strictly prohibited. These data are gathered electronically and, as presented, have NOT undergone any form of quality control. These data are NOT guaranteed to be valid or correct.